Time;durP1;ratioP1;P1;durP2;ratioP2;P2;SDS_P1;SDS_P2;PMS_P1;PMS_P2;Temp;Humidity;BMP_temperature;BMP_pressure;BME280_temperature;BME280_humidity;BME280_pressure;Samples;Min_cycle;Max_cycle;Signal;HPM_P1;HPM_P2
2023/03/18 00:01:15;;;;;;;12.60;6.93;;;;;;;3.17;86.45;95281.47;5032896;28;20537;-71
2023/03/18 00:03:42;;;;;;;12.43;7.60;;;;;;;3.22;86.60;95275.16;5033024;28;20442;-72
2023/03/18 00:06:11;;;;;;;10.67;6.10;;;;;;;3.27;85.53;95272.31;5014490;28;20438;-71
2023/03/18 00:08:39;;;;;;;8.97;7.40;;;;;;;3.28;85.18;95274.84;5032809;28;20933;-71
2023/03/18 00:11:07;;;;;;;8.50;6.70;;;;;;;3.28;85.73;95274.00;5032812;28;20438;-72
2023/03/18 00:13:35;;;;;;;12.20;7.57;;;;;;;3.29;85.84;95270.50;5033031;28;20936;-72
2023/03/18 00:16:03;;;;;;;10.73;6.40;;;;;;;3.25;85.84;95271.56;5033014;28;20450;-72
2023/03/18 00:18:31;;;;;;;9.00;7.23;;;;;;;3.29;85.23;95266.16;5032654;28;20536;-71
2023/03/18 00:20:59;;;;;;;7.93;5.87;;;;;;;3.31;85.00;95269.50;5032764;28;20446;-72
2023/03/18 00:23:27;;;;;;;10.10;7.20;;;;;;;3.21;85.87;95270.03;5032762;28;20446;-70
2023/03/18 00:25:56;;;;;;;23.67;13.30;;;;;;;3.26;85.27;95268.06;5032872;28;20532;-71
2023/03/18 00:28:23;;;;;;;9.57;8.03;;;;;;;3.15;85.63;95262.56;5032573;28;20923;-71
2023/03/18 00:30:51;;;;;;;24.57;12.30;;;;;;;3.10;85.33;95265.38;5032468;28;20930;-70
2023/03/18 00:33:18;;;;;;;31.23;14.33;;;;;;;3.17;85.61;95258.13;5032590;28;20458;-72
2023/03/18 00:35:46;;;;;;;20.90;12.20;;;;;;;3.21;84.64;95255.31;5032606;28;20469;-70
2023/03/18 00:38:19;;;;;;;24.43;13.60;;;;;;;3.25;85.51;95254.25;5032348;28;20485;-71
2023/03/18 00:41:00;;;;;;;25.33;14.70;;;;;;;3.19;84.24;95245.94;5032175;28;20870;-72
2023/03/18 00:43:31;;;;;;;22.87;15.10;;;;;;;3.17;85.29;95242.56;5032825;28;20449;-72
2023/03/18 00:45:59;;;;;;;27.50;15.50;;;;;;;3.20;85.14;95245.03;5031375;28;20446;-71
2023/03/18 00:48:28;;;;;;;20.83;13.47;;;;;;;3.07;85.26;95239.59;5032331;28;20446;-71
2023/03/18 00:50:55;;;;;;;19.10;12.93;;;;;;;3.14;85.57;95234.94;5013979;28;20442;-72
2023/03/18 00:53:23;;;;;;;27.97;14.40;;;;;;;3.18;86.06;95232.16;5032170;28;20929;-71
2023/03/18 00:55:51;;;;;;;19.17;14.03;;;;;;;3.22;86.14;95233.66;5031892;28;20512;-71
2023/03/18 00:58:18;;;;;;;21.23;14.13;;;;;;;3.25;85.70;95227.47;5032420;28;20481;-72
2023/03/18 01:00:45;;;;;;;24.10;15.00;;;;;;;3.29;85.83;95222.06;5032328;28;20442;-72
2023/03/18 01:03:14;;;;;;;19.60;14.40;;;;;;;3.33;84.99;95220.97;5032233;28;20492;-72
2023/03/18 01:05:41;;;;;;;26.23;15.00;;;;;;;3.35;85.32;95223.50;5032114;28;20509;-72
2023/03/18 01:08:08;;;;;;;26.97;15.23;;;;;;;3.36;84.53;95226.00;5032196;28;20486;-70
2023/03/18 01:10:34;;;;;;;20.63;13.30;;;;;;;3.36;84.88;95218.22;5032279;28;20446;-72
2023/03/18 01:13:01;;;;;;;19.40;14.00;;;;;;;3.37;84.88;95213.88;5032156;28;20445;-71
2023/03/18 01:15:28;;;;;;;24.30;13.90;;;;;;;3.34;83.83;95216.63;5031808;28;20442;-72
2023/03/18 01:17:55;;;;;;;18.10;12.17;;;;;;;3.33;84.25;95215.78;5032316;28;20486;-71
2023/03/18 01:20:24;;;;;;;16.87;11.83;;;;;;;3.30;84.05;95212.53;5031646;28;20446;-72
2023/03/18 01:22:51;;;;;;;13.60;8.90;;;;;;;3.21;84.68;95200.88;4997385;28;20470;-72
2023/03/18 01:25:19;;;;;;;11.00;8.53;;;;;;;3.17;84.71;95214.88;5031760;28;20442;-72
2023/03/18 01:27:46;;;;;;;10.67;7.77;;;;;;;3.17;84.81;95211.47;5032088;28;20452;-71
2023/03/18 01:30:13;;;;;;;11.30;8.40;;;;;;;3.16;84.60;95207.19;5032109;28;20467;-71
2023/03/18 01:32:42;;;;;;;12.03;7.57;;;;;;;3.18;84.84;95203.63;5031745;28;20446;-71
2023/03/18 01:35:11;;;;;;;14.07;7.67;;;;;;;3.19;83.98;95194.09;5031580;28;20474;-71
2023/03/18 01:37:39;;;;;;;13.63;9.17;;;;;;;3.22;83.54;95199.97;5031845;28;21018;-71
2023/03/18 01:40:08;;;;;;;14.60;9.27;;;;;;;3.20;83.66;95204.38;5031715;28;20808;-71
2023/03/18 01:42:35;;;;;;;17.33;11.37;;;;;;;3.23;82.88;95200.78;5031787;28;20442;-71
2023/03/18 01:45:16;;;;;;;17.33;10.50;;;;;;;3.21;83.56;95200.88;5031667;28;21007;-71
2023/03/18 01:47:43;;;;;;;18.43;13.47;;;;;;;3.24;84.06;95199.88;4996757;28;20437;-71
2023/03/18 01:50:11;;;;;;;23.43;12.27;;;;;;;3.22;83.99;95201.72;5031802;28;20473;-72
2023/03/18 01:52:40;;;;;;;32.47;12.70;;;;;;;3.19;84.52;95201.88;5031750;28;20443;-71
2023/03/18 01:55:13;;;;;;;21.40;13.10;;;;;;;3.19;84.15;95201.88;5031569;28;20533;-72
2023/03/18 01:57:42;;;;;;;25.63;14.70;;;;;;;3.18;83.67;95201.03;5034305;28;20485;-72
2023/03/18 02:00:11;;;;;;;22.17;14.13;;;;;;;3.11;84.36;95197.91;5035256;28;20437;-71
2023/03/18 02:02:40;;;;;;;15.83;12.23;;;;;;;3.05;84.59;95190.44;5000778;28;20449;-72
2023/03/18 02:05:10;;;;;;;14.43;11.60;;;;;;;3.04;84.42;95191.34;5035258;28;20532;-72
2023/03/18 02:07:41;;;;;;;18.80;11.30;;;;;;;3.01;84.58;95188.06;5035212;28;20549;-72
2023/03/18 02:10:12;;;;;;;22.50;11.80;;;;;;;2.91;84.46;95166.97;5035166;28;20450;-72
2023/03/18 02:12:42;;;;;;;19.73;12.53;;;;;;;3.03;85.19;95187.09;5016375;28;20484;-72
2023/03/18 02:15:18;;;;;;;22.27;11.93;;;;;;;3.09;84.18;95191.13;5035237;28;20933;-70
2023/03/18 02:17:49;;;;;;;17.10;10.37;;;;;;;3.10;84.39;95182.41;5035058;28;21011;-72
2023/03/18 02:20:30;;;;;;;18.80;10.90;;;;;;;3.11;83.48;95189.28;5035090;28;20442;-71
2023/03/18 02:23:08;;;;;;;14.50;10.03;;;;;;;3.06;83.48;95186.91;5034892;28;20450;-71
2023/03/18 02:25:42;;;;;;;17.40;10.93;;;;;;;3.02;83.63;95190.59;5034965;28;20857;-71
2023/03/18 02:28:14;;;;;;;13.00;9.90;;;;;;;3.02;84.50;95190.59;5034973;28;20480;-72
2023/03/18 02:30:46;;;;;;;14.90;9.20;;;;;;;2.98;84.19;95186.47;5034771;28;20450;-71
2023/03/18 02:33:15;;;;;;;17.43;11.47;;;;;;;2.92;83.49;95191.16;5034903;28;20516;-71
2023/03/18 02:35:44;;;;;;;17.17;12.20;;;;;;;2.71;83.91;95190.44;5034952;28;20486;-71
2023/03/18 02:38:11;;;;;;;22.90;14.20;;;;;;;2.63;84.77;95187.41;5034721;28;20997;-71
2023/03/18 02:40:40;;;;;;;17.40;13.40;;;;;;;2.56;87.90;95196.38;5034807;28;20446;-71
2023/03/18 02:43:20;;;;;;;21.63;14.23;;;;;;;2.45;87.01;95187.38;5034415;28;20438;-71
2023/03/18 02:45:57;;;;;;;23.73;17.33;;;;;;;2.20;87.75;95184.28;5034574;28;20932;-71
2023/03/18 02:48:31;;;;;;;25.90;18.67;;;;;;;2.17;88.02;95185.25;5034414;28;20543;-72
2023/03/18 02:50:59;;;;;;;27.07;18.50;;;;;;;2.20;88.03;95184.28;5034332;28;20519;-71
2023/03/18 02:53:26;;;;;;;27.70;19.33;;;;;;;2.28;87.27;95184.75;5034385;28;20442;-72
2023/03/18 02:55:52;;;;;;;27.53;17.37;;;;;;;2.32;87.79;95183.72;5034403;28;20533;-72
2023/03/18 02:58:21;;;;;;;23.77;15.37;;;;;;;2.35;86.85;95178.38;5034733;28;20498;-72
2023/03/18 03:00:47;;;;;;;26.17;17.33;;;;;;;2.39;86.68;95182.50;5034394;28;20449;-71
2023/03/18 03:03:15;;;;;;;24.13;15.20;;;;;;;2.40;87.09;95175.56;5033972;28;20466;-72
2023/03/18 03:05:42;;;;;;;18.13;12.37;;;;;;;2.41;87.04;95180.66;5034264;28;20466;-71
2023/03/18 03:08:09;;;;;;;15.40;12.23;;;;;;;2.42;86.63;95184.94;5032954;28;20454;-70
2023/03/18 03:10:36;;;;;;;22.45;13.20;;;;;;;2.42;86.31;95181.50;5034066;28;20455;-71
2023/03/18 03:13:04;;;;;;;20.13;13.00;;;;;;;2.44;86.90;95183.09;5033992;28;20724;-71
2023/03/18 03:15:32;;;;;;;22.17;14.27;;;;;;;2.44;86.96;95185.69;5033697;28;20446;-72
2023/03/18 03:17:59;;;;;;;21.17;13.48;;;;;;;2.48;86.41;95189.81;5034530;28;20519;-72
2023/03/18 03:20:25;;;;;;;26.17;16.13;;;;;;;2.46;85.93;95188.22;4999331;28;20203;-72
2023/03/18 03:22:53;;;;;;;34.13;18.77;;;;;;;2.43;85.90;95185.78;5034352;28;20450;-71
2023/03/18 03:25:21;;;;;;;31.97;20.63;;;;;;;2.42;86.21;95184.94;5034023;28;20496;-72
2023/03/18 03:27:48;;;;;;;36.67;20.00;;;;;;;2.41;85.84;95188.44;5034516;28;20442;-72
2023/03/18 03:30:17;;;;;;;71.63;31.10;;;;;;;2.39;86.19;95192.03;5033880;28;20533;-73
2023/03/18 03:32:46;;;;;;;64.13;28.53;;;;;;;2.37;86.22;95197.28;5034264;28;20200;-72
2023/03/18 03:35:14;;;;;;;41.97;21.90;;;;;;;2.37;85.28;95199.84;5034194;28;20481;-72
2023/03/18 03:37:41;;;;;;;33.63;18.83;;;;;;;2.38;85.41;95198.94;5034300;28;20211;-72
2023/03/18 03:40:09;;;;;;;29.50;17.75;;;;;;;2.38;84.99;95204.13;5033863;28;20995;-71
2023/03/18 03:42:36;;;;;;;35.97;19.90;;;;;;;2.40;84.45;95202.31;5034051;28;20204;-72
2023/03/18 03:45:04;;;;;;;31.67;17.80;;;;;;;2.41;84.76;95201.38;5033615;28;20925;-72
2023/03/18 03:47:31;;;;;;;31.20;16.20;;;;;;;2.44;85.27;95200.41;5033638;28;20929;-71
2023/03/18 03:49:59;;;;;;;35.30;18.27;;;;;;;2.44;85.24;95201.22;5033739;28;20473;-71
2023/03/18 03:52:27;;;;;;;24.07;13.17;;;;;;;2.44;85.81;95197.81;5033511;28;20534;-72
2023/03/18 03:54:55;;;;;;;19.90;7.83;;;;;;;2.43;85.33;95196.97;5033569;28;20443;-72
2023/03/18 03:57:22;;;;;;;10.97;6.27;;;;;;;2.41;84.85;95196.22;5032895;28;20461;-72
2023/03/18 03:59:50;;;;;;;8.80;6.50;;;;;;;2.40;85.31;95197.13;5032886;28;20588;-72
2023/03/18 04:02:17;;;;;;;9.77;7.68;;;;;;;3.36;100.00;95196.63;5032854;28;20476;-72
2023/03/18 04:04:45;;;;;;;7.87;5.67;;;;;;;3.15;98.77;95205.50;4998955;28;20590;-72
2023/03/18 04:07:14;;;;;;;7.20;5.73;;;;;;;3.06;90.38;95204.22;5033148;28;20477;-72
2023/03/18 04:09:41;;;;;;;9.67;6.30;;;;;;;3.00;86.79;95212.31;5033305;28;20781;-71
2023/03/18 04:12:09;;;;;;;5.23;3.70;;;;;;;2.96;86.86;95222.00;5033287;28;20461;-72
2023/03/18 04:14:35;;;;;;;6.80;5.47;;;;;;;2.92;85.26;95224.84;5039853;28;20445;-71
2023/03/18 04:17:02;;;;;;;10.40;7.10;;;;;;;2.83;85.26;95226.09;5052554;28;20448;-72
2023/03/18 04:19:29;;;;;;;14.50;9.00;;;;;;;2.76;84.85;95235.09;5052635;28;20476;-71
2023/03/18 04:21:56;;;;;;;17.80;10.03;;;;;;;2.67;85.35;95232.97;5052649;28;20449;-71
2023/03/18 04:24:25;;;;;;;26.43;16.03;;;;;;;2.54;84.53;95239.63;5052734;28;20447;-72
2023/03/18 04:26:51;;;;;;;34.97;19.93;;;;;;;2.36;84.79;95244.78;5053190;28;20445;-71
2023/03/18 04:29:18;;;;;;;39.73;23.87;;;;;;;2.18;85.70;95250.81;5053149;28;20453;-72
2023/03/18 04:31:45;;;;;;;38.93;20.87;;;;;;;2.09;86.20;95253.84;5034374;28;20503;-70
2023/03/18 04:34:12;;;;;;;23.77;16.90;;;;;;;2.06;86.90;95253.97;5052081;28;20538;-72
2023/03/18 04:36:39;;;;;;;28.90;18.03;;;;;;;2.02;87.82;95252.41;5052881;28;20527;-71
2023/03/18 04:39:08;;;;;;;26.80;17.17;;;;;;;2.05;87.90;95252.31;5052165;28;20477;-71
2023/03/18 04:41:37;;;;;;;32.80;17.33;;;;;;;2.09;87.69;95249.50;5032451;28;21178;-70
2023/03/18 04:44:04;;;;;;;22.88;15.90;;;;;;;2.07;88.16;95253.91;5052226;28;20205;-71
2023/03/18 04:46:31;;;;;;;16.90;12.63;;;;;;;2.16;88.53;95261.25;5050194;28;20201;-71
2023/03/18 04:48:58;;;;;;;12.77;8.93;;;;;;;2.20;88.05;95259.34;5052335;28;20214;-71
2023/03/18 04:51:26;;;;;;;10.27;7.57;;;;;;;2.31;88.14;95264.84;5052467;28;20994;-71
2023/03/18 04:53:53;;;;;;;10.50;6.23;;;;;;;2.41;87.33;95270.47;5052516;28;20850;-71
2023/03/18 04:56:20;;;;;;;8.93;5.70;;;;;;;2.48;86.77;95267.50;5052236;28;20445;-72
2023/03/18 04:58:48;;;;;;;8.33;5.30;;;;;;;2.56;86.91;95271.47;5052174;28;20485;-71
2023/03/18 05:01:15;;;;;;;7.45;5.20;;;;;;;2.65;86.50;95268.47;5052283;28;20860;-71
2023/03/18 05:03:42;;;;;;;8.23;6.53;;;;;;;2.72;86.34;95264.66;5052369;28;20650;-70
2023/03/18 05:06:16;;;;;;;6.40;5.30;;;;;;;2.74;85.90;95260.25;5052345;28;20453;-70
2023/03/18 05:08:43;;;;;;;9.43;6.23;;;;;;;2.93;85.77;95257.59;5052383;28;20523;-71
2023/03/18 05:11:10;;;;;;;4.97;4.30;;;;;;;3.18;84.63;95262.38;5050996;28;20987;-71
2023/03/18 05:13:37;;;;;;;6.10;4.70;;;;;;;3.41;83.24;95267.25;5021497;28;20521;-71
2023/03/18 05:16:07;;;;;;;6.40;4.90;;;;;;;3.66;81.65;95257.31;5031977;28;21045;-71
2023/03/18 05:18:34;;;;;;;6.13;4.60;;;;;;;3.96;81.74;95269.59;5031972;28;20580;-70
2023/03/18 05:21:01;;;;;;;9.27;4.97;;;;;;;4.19;80.57;95248.44;5032004;28;20496;-71
2023/03/18 05:23:28;;;;;;;8.00;5.17;;;;;;;4.44;78.82;95252.31;5032097;28;21000;-71
2023/03/18 05:25:55;;;;;;;5.60;4.80;;;;;;;4.93;78.38;95251.25;5032482;28;20488;-70
2023/03/18 05:28:22;;;;;;;6.20;5.20;;;;;;;5.47;76.15;95248.09;5031917;28;20500;-71
2023/03/18 05:30:49;;;;;;;7.30;6.10;;;;;;;5.99;72.54;95252.81;5032185;28;20442;-72
2023/03/18 05:33:17;;;;;;;9.40;6.60;;;;;;;6.45;71.38;95248.22;5036076;28;20454;-72
2023/03/18 05:35:44;;;;;;;7.67;6.97;;;;;;;6.90;68.61;95249.66;5036183;28;20470;-73
2023/03/18 05:38:11;;;;;;;10.43;5.43;;;;;;;7.28;66.88;95252.41;5035677;28;20442;-72
2023/03/18 05:40:38;;;;;;;5.63;5.03;;;;;;;7.77;66.30;95254.31;5035742;28;20810;-73
2023/03/18 05:43:05;;;;;;;5.33;4.43;;;;;;;8.29;63.62;95250.72;5035837;28;20450;-73
2023/03/18 05:45:32;;;;;;;6.60;4.90;;;;;;;8.82;61.31;95248.72;5000737;28;20990;-73
2023/03/18 05:47:59;;;;;;;5.30;4.80;;;;;;;9.07;59.87;95253.84;5035428;28;20958;-73
2023/03/18 05:50:32;;;;;;;7.07;5.50;;;;;;;9.41;58.31;95248.75;5035964;28;20456;-71
2023/03/18 05:52:59;;;;;;;6.87;5.90;;;;;;;9.72;57.19;95258.59;5035099;28;20449;-71
2023/03/18 05:55:27;;;;;;;9.97;7.00;;;;;;;9.81;56.76;95255.28;5034872;28;20442;-72
2023/03/18 05:57:54;;;;;;;6.50;5.97;;;;;;;10.00;56.03;95265.19;5035362;28;20524;-73
2023/03/18 06:00:21;;;;;;;8.40;5.60;;;;;;;10.07;55.91;95276.88;5000271;28;20485;-70
2023/03/18 06:02:48;;;;;;;9.83;5.40;;;;;;;10.18;55.97;95273.44;5035521;28;20460;-72
2023/03/18 06:05:15;;;;;;;11.40;7.00;;;;;;;10.24;55.95;95275.63;5035290;28;20833;-71
2023/03/18 06:07:44;;;;;;;11.90;7.40;;;;;;;10.00;57.11;95278.31;5035298;28;20454;-71
2023/03/18 06:10:12;;;;;;;10.80;6.90;;;;;;;9.80;58.72;95269.31;5035426;28;20446;-70
2023/03/18 06:12:40;;;;;;;10.97;8.57;;;;;;;9.70;60.18;95270.16;5037297;28;20948;-72
2023/03/18 06:15:08;;;;;;;12.60;9.33;;;;;;;8.77;60.19;95274.38;5055210;28;20440;-72
2023/03/18 06:17:35;;;;;;;16.40;11.37;;;;;;;8.49;62.16;95272.91;5055239;28;20845;-70
2023/03/18 06:20:03;;;;;;;14.27;10.70;;;;;;;8.87;63.19;95278.00;5036039;28;20483;-71
2023/03/18 06:22:30;;;;;;;17.53;13.10;;;;;;;8.15;65.00;95279.63;5055046;28;20549;-71
2023/03/18 06:24:58;;;;;;;21.30;15.90;;;;;;;8.24;65.56;95276.34;5055060;28;20489;-72
2023/03/18 06:27:25;;;;;;;19.73;14.47;;;;;;;8.47;65.32;95280.84;5055282;28;20448;-71
2023/03/18 06:29:53;;;;;;;24.30;17.17;;;;;;;8.79;65.24;95269.88;5054894;28;20444;-71
2023/03/18 06:32:20;;;;;;;24.33;17.00;;;;;;;9.16;63.69;95261.03;5054502;28;20469;-72
2023/03/18 06:34:47;;;;;;;25.97;16.57;;;;;;;9.47;62.19;95258.75;5054474;28;20520;-73
2023/03/18 06:37:14;;;;;;;24.27;16.83;;;;;;;9.37;62.31;95250.75;5054315;28;20452;-70
2023/03/18 06:39:41;;;;;;;17.33;14.70;;;;;;;9.54;62.20;95257.34;5054773;28;20578;-71
2023/03/18 06:42:10;;;;;;;20.90;15.40;;;;;;;9.81;61.82;95249.19;5054535;28;20461;-70
2023/03/18 06:44:37;;;;;;;32.13;18.57;;;;;;;10.00;61.23;95238.16;5054046;28;20437;-72
2023/03/18 06:47:03;;;;;;;20.87;14.90;;;;;;;10.21;61.48;95244.41;5054494;28;20849;-72
2023/03/18 06:49:30;;;;;;;21.27;16.43;;;;;;;10.52;60.69;95246.28;5054743;28;20568;-71
2023/03/18 06:51:57;;;;;;;26.70;16.63;;;;;;;10.71;58.57;95243.03;5053957;28;20445;-71
2023/03/18 06:54:24;;;;;;;22.40;15.67;;;;;;;10.34;59.72;95246.88;5054296;28;20935;-72
2023/03/18 06:56:51;;;;;;;22.37;14.33;;;;;;;10.06;59.81;95243.75;5054104;28;20531;-70
2023/03/18 06:59:20;;;;;;;26.03;15.90;;;;;;;10.20;63.96;95240.94;5054242;28;20573;-72
2023/03/18 07:01:48;;;;;;;25.03;15.97;;;;;;;10.75;61.49;95243.63;5054019;28;20453;-71
2023/03/18 07:04:14;;;;;;;24.17;17.97;;;;;;;11.26;58.18;95241.19;5054476;28;20457;-72
2023/03/18 07:06:42;;;;;;;31.47;18.73;;;;;;;11.47;57.10;95241.22;5054419;28;20514;-71
2023/03/18 07:09:09;;;;;;;26.50;17.43;;;;;;;11.70;56.01;95242.78;5052129;28;20841;-72
2023/03/18 07:11:36;;;;;;;29.93;19.97;;;;;;;11.97;55.51;95251.97;5054190;28;20450;-73
2023/03/18 07:14:04;;;;;;;42.10;21.77;;;;;;;12.15;54.67;95247.78;5053357;28;20452;-72
2023/03/18 07:16:32;;;;;;;49.83;26.87;;;;;;;12.12;54.12;95244.56;5054065;28;20485;-72
2023/03/18 07:19:00;;;;;;;66.23;32.23;;;;;;;11.85;54.80;95245.09;5052389;28;20477;-76
2023/03/18 07:21:28;;;;;;;66.47;28.10;;;;;;;11.19;56.58;95237.41;5053528;28;20450;-73
2023/03/18 07:23:55;;;;;;;51.60;26.17;;;;;;;11.17;56.02;95240.16;5053861;28;20456;-73
2023/03/18 07:26:21;;;;;;;36.37;21.33;;;;;;;10.91;58.22;95236.19;5018201;28;20453;-73
2023/03/18 07:28:48;;;;;;;32.63;20.70;;;;;;;10.19;59.92;95239.25;5053830;28;20832;-73
2023/03/18 07:31:15;;;;;;;29.93;20.10;;;;;;;10.00;60.73;95244.22;5053025;28;20445;-72
2023/03/18 07:33:43;;;;;;;35.93;20.20;;;;;;;9.74;62.62;95238.34;5052624;28;20457;-72
2023/03/18 07:36:10;;;;;;;31.97;21.00;;;;;;;9.47;64.07;95243.03;5033957;28;20476;-72
2023/03/18 07:38:38;;;;;;;40.43;22.60;;;;;;;9.34;64.00;95231.81;5048685;28;20476;-73
2023/03/18 07:41:06;;;;;;;43.33;24.10;;;;;;;9.41;64.61;95241.72;5053162;28;20484;-72
2023/03/18 07:43:33;;;;;;;40.73;25.43;;;;;;;9.26;65.61;95243.72;5052724;28;20973;-71
2023/03/18 07:46:00;;;;;;;35.07;22.37;;;;;;;9.16;65.74;95239.25;5052796;28;20506;-73
2023/03/18 07:48:27;;;;;;;35.97;21.57;;;;;;;9.18;66.29;95239.97;5017315;28;20443;-72
2023/03/18 07:50:55;;;;;;;43.53;22.33;;;;;;;9.41;66.30;95244.34;5049523;28;20448;-73
2023/03/18 07:53:22;;;;;;;30.70;19.90;;;;;;;9.44;66.45;95245.91;5050466;28;20472;-73
2023/03/18 07:55:49;;;;;;;30.00;19.77;;;;;;;9.73;65.57;95236.69;5052365;28;20444;-74
2023/03/18 07:58:16;;;;;;;30.20;20.10;;;;;;;10.02;64.94;95238.84;5052154;28;20456;-72
2023/03/18 08:00:43;;;;;;;30.27;21.07;;;;;;;10.36;63.76;95243.19;5053244;28;20485;-72
2023/03/18 08:03:12;;;;;;;31.70;22.63;;;;;;;10.37;63.33;95241.38;5052006;28;20453;-72
2023/03/18 08:05:39;;;;;;;29.53;21.13;;;;;;;10.44;62.76;95232.94;5053231;28;20453;-72
2023/03/18 08:08:08;;;;;;;29.83;21.50;;;;;;;10.35;63.43;95238.88;5034273;28;20520;-71
2023/03/18 08:10:35;;;;;;;24.80;18.60;;;;;;;10.29;62.56;95235.91;5053281;28;20539;-72
2023/03/18 08:13:02;;;;;;;31.97;19.47;;;;;;;10.19;62.78;95222.66;5017098;28;20440;-73
2023/03/18 08:15:30;;;;;;;29.93;19.60;;;;;;;9.81;63.40;95234.31;5053245;28;20766;-73
2023/03/18 08:17:56;;;;;;;32.07;19.00;;;;;;;9.84;63.70;95238.50;5052893;28;20448;-72
2023/03/18 08:20:23;;;;;;;28.60;20.37;;;;;;;9.73;63.58;95241.91;5053241;28;20488;-72
2023/03/18 08:22:50;;;;;;;36.83;20.07;;;;;;;9.67;64.83;95242.38;5033939;28;20500;-72
2023/03/18 08:25:18;;;;;;;31.57;18.10;;;;;;;9.69;64.51;95250.97;5034287;28;20489;-72
2023/03/18 08:27:45;;;;;;;23.73;16.10;;;;;;;9.60;66.10;95246.44;5034319;28;20448;-71
2023/03/18 08:30:13;;;;;;;27.63;15.17;;;;;;;9.72;66.22;95250.72;5052478;28;20448;-71
2023/03/18 08:32:40;;;;;;;33.20;17.23;;;;;;;9.59;65.94;95250.84;5001634;28;20464;-72
2023/03/18 08:35:08;;;;;;;23.30;15.80;;;;;;;9.98;66.29;95250.53;5052612;28;20468;-71
2023/03/18 08:37:36;;;;;;;21.37;14.77;;;;;;;9.93;64.78;95243.03;5018008;28;20449;-70
2023/03/18 08:40:03;;;;;;;20.43;14.60;;;;;;;10.27;63.08;95236.03;5053021;28;20837;-71
2023/03/18 08:42:32;;;;;;;24.33;14.77;;;;;;;10.40;61.57;95243.78;5052599;28;20528;-70
2023/03/18 08:44:58;;;;;;;22.40;14.43;;;;;;;10.43;62.30;95233.91;5017764;28;20449;-71
2023/03/18 08:47:26;;;;;;;24.07;15.10;;;;;;;10.57;61.59;95226.72;5052940;28;20445;-72
2023/03/18 08:49:52;;;;;;;21.07;13.10;;;;;;;10.54;61.90;95238.28;5053049;28;20476;-71
2023/03/18 08:52:19;;;;;;;23.50;14.23;;;;;;;10.64;61.34;95233.13;5017890;28;20502;-72
2023/03/18 08:54:46;;;;;;;23.50;14.97;;;;;;;10.71;61.05;95235.19;5053079;28;20468;-72
2023/03/18 08:57:14;;;;;;;22.43;13.57;;;;;;;10.78;60.99;95231.09;5053278;28;20445;-71
2023/03/18 08:59:42;;;;;;;21.70;15.10;;;;;;;10.79;59.47;95232.75;5052622;28;20481;-71
2023/03/18 09:02:15;;;;;;;19.30;13.30;;;;;;;10.91;59.27;95241.44;5053000;28;20450;-72
2023/03/18 09:04:42;;;;;;;18.20;12.33;;;;;;;10.83;59.23;95238.59;5052597;28;20960;-72
2023/03/18 09:07:09;;;;;;;15.97;12.00;;;;;;;11.03;59.64;95240.47;5052206;28;20502;-71
2023/03/18 09:09:36;;;;;;;15.57;13.67;;;;;;;10.93;60.67;95247.38;5053124;28;20453;-71
2023/03/18 09:12:04;;;;;;;17.80;12.50;;;;;;;10.82;59.48;95237.75;5052716;28;20547;-72
2023/03/18 09:14:31;;;;;;;16.87;12.97;;;;;;;10.70;60.47;95240.53;5052707;28;20452;-71
2023/03/18 09:16:59;;;;;;;22.13;13.57;;;;;;;10.90;60.71;95245.00;5052535;28;20874;-72
2023/03/18 09:19:28;;;;;;;16.80;11.63;;;;;;;11.15;59.80;95239.44;5052733;28;20449;-71
2023/03/18 09:21:54;;;;;;;22.97;14.40;;;;;;;10.99;60.08;95246.91;5052292;28;20500;-72
2023/03/18 09:24:21;;;;;;;23.07;14.70;;;;;;;10.86;60.12;95246.22;5052492;28;20445;-72
2023/03/18 09:26:48;;;;;;;16.67;12.60;;;;;;;10.72;58.28;95244.72;5056897;28;20437;-71
2023/03/18 09:29:15;;;;;;;22.80;11.87;;;;;;;10.65;57.53;95250.53;5054825;28;20505;-73
2023/03/18 09:31:42;;;;;;;18.33;13.30;;;;;;;10.73;58.48;95242.91;5053126;28;20540;-71
2023/03/18 09:34:12;;;;;;;13.57;10.20;;;;;;;10.82;56.22;95247.44;5052107;28;20451;-71
2023/03/18 09:36:39;;;;;;;11.87;9.67;;;;;;;11.02;55.88;95241.41;5052608;28;20472;-72
2023/03/18 09:39:07;;;;;;;16.27;10.60;;;;;;;11.25;55.19;95244.78;5052047;28;20433;-71
2023/03/18 09:41:47;;;;;;;9.10;6.57;;;;;;;11.07;49.80;95247.13;5052139;28;20521;-72
2023/03/18 09:44:21;;;;;;;8.30;6.70;;;;;;;11.24;52.88;95239.66;5055438;28;20484;-72
2023/03/18 09:47:04;;;;;;;10.80;7.67;;;;;;;11.12;51.79;95236.25;5051295;28;20453;-73
2023/03/18 09:49:48;;;;;;;10.23;8.00;;;;;;;11.05;52.86;95227.19;5052331;28;20444;-72
2023/03/18 09:52:22;;;;;;;11.73;7.97;;;;;;;11.03;53.55;95229.94;5052431;28;20441;-72
2023/03/18 09:54:57;;;;;;;10.30;9.20;;;;;;;10.98;53.91;95234.72;5052206;28;20447;-71
2023/03/18 09:57:27;;;;;;;10.80;8.60;;;;;;;10.88;54.05;95230.34;5052338;28;20912;-73
2023/03/18 09:59:58;;;;;;;13.03;9.57;;;;;;;11.02;54.50;95233.53;5055281;28;20821;-71
2023/03/18 10:02:32;;;;;;;9.87;8.30;;;;;;;11.18;53.02;95238.38;5056926;28;20448;-71
2023/03/18 10:05:05;;;;;;;6.33;5.73;;;;;;;10.40;50.67;95241.16;5024863;28;20928;-73
2023/03/18 10:07:38;;;;;;;6.43;5.23;;;;;;;10.11;50.68;95246.00;5039148;28;20518;-73
2023/03/18 10:10:09;;;;;;;8.83;5.70;;;;;;;9.99;51.22;95242.56;5059869;28;20454;-71
2023/03/18 10:12:40;;;;;;;6.17;5.57;;;;;;;10.37;53.33;95234.34;5059900;28;20457;-72
2023/03/18 10:15:16;;;;;;;9.60;7.63;;;;;;;10.67;53.57;95225.00;5041074;28;20556;-71
2023/03/18 10:17:48;;;;;;;8.97;6.37;;;;;;;10.46;52.81;95233.66;5061524;28;20449;-71
2023/03/18 10:20:19;;;;;;;9.23;7.23;;;;;;;9.87;54.85;95233.84;5062684;28;20488;-73
2023/03/18 10:23:12;;;;;;;5.80;5.20;;;;;;;9.75;52.22;95234.78;5062214;28;20441;-72
2023/03/18 10:25:44;;;;;;;5.37;4.87;;;;;;;9.35;51.60;95231.72;4999741;28;20471;-72
2023/03/18 10:28:42;;;;;;;6.00;4.77;;;;;;;8.92;52.02;95229.63;4998552;28;20459;-71
2023/03/18 10:31:24;;;;;;;5.67;4.80;;;;;;;8.76;52.79;95229.06;4996727;28;20959;-71
2023/03/18 10:33:58;;;;;;;7.63;5.97;;;;;;;8.73;54.79;95226.69;4998190;28;20495;-71
2023/03/18 10:36:31;;;;;;;7.13;5.10;;;;;;;8.95;55.67;95228.56;4999564;28;20489;-72
2023/03/18 10:39:01;;;;;;;7.83;5.33;;;;;;;9.12;54.02;95224.72;4949549;28;20898;-71
2023/03/18 10:41:32;;;;;;;7.13;5.10;;;;;;;9.28;53.27;95222.66;4940031;28;20480;-71
2023/03/18 10:44:03;;;;;;;6.93;5.40;;;;;;;9.42;52.23;95230.28;4998346;28;20535;-72
2023/03/18 10:46:31;;;;;;;7.57;5.20;;;;;;;9.60;50.61;95225.47;4998745;28;20466;-71
2023/03/18 10:49:06;;;;;;;6.87;5.23;;;;;;;9.73;51.41;95235.84;5001106;28;20436;-71
2023/03/18 10:51:44;;;;;;;4.30;3.90;;;;;;;9.78;48.87;95234.53;5000585;28;20549;-71
2023/03/18 10:54:15;;;;;;;6.53;4.70;;;;;;;9.80;47.62;95229.19;4999665;28;20452;-72
2023/03/18 10:56:43;;;;;;;6.03;5.43;;;;;;;10.03;46.08;95223.00;5000414;28;20482;-72
2023/03/18 10:59:15;;;;;;;5.23;4.30;;;;;;;9.90;46.24;95223.13;5000160;28;20475;-72
2023/03/18 11:01:45;;;;;;;4.80;4.13;;;;;;;10.19;46.77;95214.81;5004635;28;20488;-72
2023/03/18 11:04:15;;;;;;;5.30;4.80;;;;;;;10.36;46.13;95211.72;5061724;28;20467;-72
2023/03/18 11:06:47;;;;;;;8.60;5.50;;;;;;;10.46;47.23;95203.97;5061866;28;20507;-72
2023/03/18 11:09:17;;;;;;;7.87;5.20;;;;;;;10.38;46.40;95211.59;5065592;28;20442;-72
2023/03/18 11:11:45;;;;;;;5.10;4.30;;;;;;;10.23;47.18;95209.22;5058767;28;20535;-72
2023/03/18 11:14:16;;;;;;;5.17;4.67;;;;;;;9.81;48.61;95208.09;5058601;28;20452;-73
2023/03/18 11:16:48;;;;;;;5.30;4.70;;;;;;;9.55;46.95;95206.66;5061039;28;20449;-71
2023/03/18 11:19:28;;;;;;;9.53;4.00;;;;;;;9.28;45.86;95209.56;5057029;28;20453;-72
2023/03/18 11:22:10;;;;;;;4.50;4.07;;;;;;;9.30;47.00;95210.28;5053564;28;20485;-73
2023/03/18 11:24:41;;;;;;;19.07;5.63;;;;;;;9.23;46.70;95204.63;5053310;28;20456;-71
2023/03/18 11:27:28;;;;;;;4.30;3.90;;;;;;;8.88;47.49;95216.88;5054216;28;20542;-76
2023/03/18 11:29:58;;;;;;;7.13;4.20;;;;;;;8.90;51.63;95196.66;5053890;28;21055;-77
2023/03/18 11:32:28;;;;;;;6.50;4.20;;;;;;;10.27;74.85;95195.88;5055437;28;20453;-78
2023/03/18 11:34:57;;;;;;;6.83;5.17;;;;;;;11.11;50.91;95201.28;5055009;28;20473;-75
2023/03/18 11:37:31;;;;;;;15.43;5.13;;;;;;;10.17;46.11;95204.44;5054164;28;20542;-74